SCVM 231500Z 00000KT CAVOK 11/05 Q1018